Time;durP1;ratioP1;P1;durP2;ratioP2;P2;SDS_P1;SDS_P2;PMS_P1;PMS_P2;Temp;Humidity;BMP_temperature;BMP_pressure;BME280_temperature;BME280_humidity;BME280_pressure;Samples;Min_cycle;Max_cycle;Signal;HPM_P1;HPM_P2
2022/01/18 00:01:42;;;;;;;1.27;0.35;;;20.80;46.90;;;;;;4902853;29;20076;-81
2022/01/18 00:04:08;;;;;;;2.38;0.47;;;20.70;46.90;;;;;;4915022;29;20047;-81
2022/01/18 00:06:35;;;;;;;2.33;0.65;;;20.70;46.90;;;;;;4914437;29;20472;-81
2022/01/18 00:09:00;;;;;;;1.88;0.32;;;20.70;46.90;;;;;;4913916;29;20489;-81
2022/01/18 00:11:29;;;;;;;1.33;0.38;;;20.70;46.90;;;;;;4914125;29;20218;-81
2022/01/18 00:14:01;;;;;;;2.88;0.50;;;20.70;46.90;;;;;;4914565;29;20138;-81
2022/01/18 00:19:15;;;;;;;1.92;0.50;;;20.70;47.00;;;;;;4919277;29;20047;-81
2022/01/18 00:22:06;;;;;;;1.58;0.43;;;20.60;46.90;;;;;;4916815;29;20562;-81
2022/01/18 00:24:31;;;;;;;1.60;0.40;;;20.60;46.90;;;;;;4930507;29;20051;-80
2022/01/18 00:26:57;;;;;;;2.33;0.50;;;20.60;47.00;;;;;;4917722;29;20051;-81
2022/01/18 00:29:25;;;;;;;3.30;0.57;;;20.60;47.00;;;;;;4932908;29;20514;-81
2022/01/18 00:32:06;;;;;;;2.03;0.40;;;20.60;47.00;;;;;;4918216;29;20511;-81
2022/01/18 00:34:36;;;;;;;1.90;0.68;;;20.60;47.00;;;;;;4917736;29;20048;-82
2022/01/18 00:39:40;;;;;;;2.58;0.50;;;20.60;47.00;;;;;;4949651;29;20070;-81
2022/01/18 00:42:07;;;;;;;2.38;0.40;;;20.50;47.00;;;;;;4917662;29;20062;-81
2022/01/18 00:44:33;;;;;;;1.80;0.45;;;20.50;47.00;;;;;;4916889;29;20177;-81
2022/01/18 00:46:59;;;;;;;2.60;0.60;;;20.50;47.00;;;;;;4917716;29;20158;-81
2022/01/18 00:49:24;;;;;;;2.15;0.40;;;20.60;47.10;;;;;;4917423;29;20044;-81
2022/01/18 00:51:55;;;;;;;2.22;0.35;;;20.50;47.00;;;;;;4916935;29;20495;-81
2022/01/18 00:54:31;;;;;;;2.55;0.40;;;20.50;47.10;;;;;;4917290;29;20385;-81
2022/01/18 00:56:57;;;;;;;1.45;0.30;;;20.70;47.90;;;;;;4917539;29;20408;-81
2022/01/18 00:59:23;;;;;;;2.50;0.50;;;20.50;47.10;;;;;;4948301;29;20048;-81
2022/01/18 01:01:48;;;;;;;2.08;0.60;;;20.50;47.10;;;;;;4917145;29;20731;-81
2022/01/18 01:04:14;;;;;;;2.40;0.40;;;20.50;47.10;;;;;;4917123;29;20419;-81
2022/01/18 01:06:40;;;;;;;2.83;0.65;;;20.50;47.10;;;;;;4916424;29;20126;-80
2022/01/18 01:09:06;;;;;;;2.72;0.65;;;20.40;47.10;;;;;;4917212;29;20150;-81
2022/01/18 01:11:36;;;;;;;3.78;0.68;;;20.40;47.10;;;;;;4916703;29;20104;-81
2022/01/18 01:14:02;;;;;;;2.50;0.52;;;20.40;47.10;;;;;;4917040;29;20043;-81
2022/01/18 01:35:12;;;;;;;1.95;0.40;;;20.30;47.20;;;;;;4948353;29;20087;-81
2022/01/18 01:43:10;;;;;;;2.00;0.43;;;20.30;47.20;;;;;;4930058;29;20445;-81
2022/01/18 01:45:36;;;;;;;1.98;0.57;;;21.10;47.60;;;;;;4916322;29;20063;-81
2022/01/18 01:48:02;;;;;;;1.48;0.47;;;20.30;47.20;;;;;;4915548;29;20090;-81
2022/01/18 01:50:40;;;;;;;2.30;0.50;;;20.30;47.20;;;;;;4916488;29;20579;-81
2022/01/18 01:53:05;;;;;;;2.65;0.60;;;20.30;47.30;;;;;;4916490;29;20040;-81
2022/01/18 01:55:31;;;;;;;1.75;0.40;;;20.20;47.20;;;;;;4915684;29;20109;-81
2022/01/18 01:57:56;;;;;;;2.00;0.60;;;20.20;47.20;;;;;;4916450;29;20060;-81
2022/01/18 02:00:22;;;;;;;2.22;0.60;;;20.30;47.30;;;;;;4947659;29;20060;-81
2022/01/18 02:02:48;;;;;;;2.20;0.55;;;20.20;47.20;;;;;;4915387;29;20043;-81
2022/01/18 02:05:13;;;;;;;2.35;0.60;;;20.20;47.30;;;;;;4915805;29;20072;-81
2022/01/18 02:07:39;;;;;;;2.60;0.50;;;20.20;47.30;;;;;;4915501;29;20097;-81
2022/01/18 02:10:07;;;;;;;2.15;0.63;;;20.20;47.30;;;;;;4915661;29;20050;-81
2022/01/18 02:12:33;;;;;;;2.80;0.50;;;20.20;47.30;;;;;;4916090;29;20078;-81
2022/01/18 02:15:02;;;;;;;2.17;0.43;;;20.20;47.30;;;;;;4915203;29;20043;-81
2022/01/18 02:22:56;;;;;;;2.78;0.50;;;20.10;47.30;;;;;;4946896;29;20078;-81
2022/01/18 02:25:23;;;;;;;1.88;0.50;;;20.10;47.30;;;;;;4917824;29;20055;-80
2022/01/18 02:27:48;;;;;;;2.35;0.55;;;20.10;47.30;;;;;;4915527;29;20135;-80
2022/01/18 02:30:14;;;;;;;2.65;0.70;;;20.10;47.30;;;;;;4905211;29;20494;-81
2022/01/18 02:32:39;;;;;;;1.52;0.40;;;20.10;47.30;;;;;;4929278;29;20043;-81
2022/01/18 02:35:05;;;;;;;3.35;0.63;;;20.10;47.40;;;;;;4915736;29;20052;-81
2022/01/18 02:37:31;;;;;;;2.78;0.60;;;20.10;47.40;;;;;;4915060;29;20139;-81
2022/01/18 02:39:56;;;;;;;3.22;0.50;;;20.10;47.40;;;;;;4915384;29;20042;-81
2022/01/18 02:42:25;;;;;;;3.75;0.60;;;20.10;47.40;;;;;;4915334;29;20546;-81
2022/01/18 02:44:52;;;;;;;2.15;0.63;;;20.10;47.40;;;;;;4914696;29;20142;-80
2022/01/18 02:47:21;;;;;;;2.08;0.50;;;20.10;47.40;;;;;;4915033;29;20408;-81
2022/01/18 02:49:47;;;;;;;2.80;0.47;;;20.00;47.40;;;;;;4915267;29;20055;-81
2022/01/18 02:52:16;;;;;;;1.70;0.40;;;20.00;47.40;;;;;;4914866;29;20048;-81
2022/01/18 02:54:42;;;;;;;2.13;0.40;;;20.00;47.40;;;;;;4946991;29;20044;-81
2022/01/18 02:57:12;;;;;;;2.70;0.57;;;20.00;47.50;;;;;;4914490;29;20091;-81
2022/01/18 02:59:52;;;;;;;1.60;0.40;;;20.00;47.50;;;;;;4915540;29;20047;-81
2022/01/18 03:05:09;;;;;;;2.75;0.65;;;20.00;47.40;;;;;;4945943;29;20059;-81
2022/01/18 03:07:34;;;;;;;3.72;0.60;;;20.00;47.40;;;;;;4945734;29;20091;-81
2022/01/18 03:10:00;;;;;;;2.72;0.60;;;20.00;47.50;;;;;;4946841;29;20048;-81
2022/01/18 03:12:25;;;;;;;2.47;0.50;;;20.00;47.50;;;;;;4914093;29;20492;-81
2022/01/18 03:14:51;;;;;;;2.58;0.60;;;20.00;47.50;;;;;;4915076;29;20472;-81
2022/01/18 03:17:16;;;;;;;2.28;0.43;;;20.50;47.70;;;;;;4914880;29;20058;-80
2022/01/18 03:19:42;;;;;;;1.83;0.50;;;19.90;47.50;;;;;;4914074;29;20047;-81
2022/01/18 03:22:08;;;;;;;2.00;0.40;;;20.00;47.50;;;;;;4915202;29;20047;-81
2022/01/18 03:30:04;;;;;;;1.35;0.40;;;19.90;47.50;;;;;;4946796;29;20138;-81
2022/01/18 03:32:29;;;;;;;2.45;0.40;;;19.90;47.50;;;;;;4914296;29;20567;-81
2022/01/18 03:34:55;;;;;;;1.90;0.45;;;19.90;47.50;;;;;;4914858;29;20047;-81
2022/01/18 03:37:20;;;;;;;1.38;0.40;;;19.90;47.50;;;;;;4915085;29;20111;-81
2022/01/18 03:39:46;;;;;;;2.30;0.40;;;19.90;47.50;;;;;;4913974;29;20138;-81
2022/01/18 03:42:34;;;;;;;3.40;0.60;;;19.90;47.60;;;;;;4914646;29;20044;-81
2022/01/18 03:45:01;;;;;;;3.10;0.60;;;19.90;47.60;;;;;;4920187;29;20135;-81
2022/01/18 03:47:27;;;;;;;1.75;0.50;;;19.90;47.60;;;;;;4914088;29;20062;-81
2022/01/18 03:49:53;;;;;;;3.70;0.85;;;19.90;47.70;;;;;;4914609;29;20082;-81
2022/01/18 03:52:18;;;;;;;3.03;0.57;;;19.90;47.70;;;;;;4915013;29;20048;-81
2022/01/18 03:54:47;;;;;;;1.70;0.55;;;19.90;47.60;;;;;;4913952;29;20488;-81
2022/01/18 03:57:16;;;;;;;3.15;0.60;;;19.80;47.60;;;;;;4918144;29;20040;-81
2022/01/18 03:59:42;;;;;;;2.50;0.60;;;19.90;47.70;;;;;;4934008;29;20054;-81
2022/01/18 04:02:07;;;;;;;1.92;0.43;;;19.80;47.60;;;;;;4933486;29;20138;-81
2022/01/18 04:04:34;;;;;;;2.95;0.50;;;19.80;47.60;;;;;;4933773;29;20493;-81
2022/01/18 04:07:00;;;;;;;1.80;0.38;;;19.80;47.60;;;;;;4918818;29;20701;-82
2022/01/18 04:09:25;;;;;;;3.47;0.95;;;19.80;47.60;;;;;;4949204;28;20090;-81
2022/01/18 04:11:52;;;;;;;2.95;0.60;;;19.80;47.60;;;;;;4950143;29;20059;-81
2022/01/18 04:14:17;;;;;;;1.85;0.50;;;19.80;47.60;;;;;;4948958;29;20563;-81
2022/01/18 04:27:51;;;;;;;2.22;0.57;;;19.70;47.50;;;;;;4949688;29;20052;-81
2022/01/18 04:30:17;;;;;;;2.63;0.65;;;19.70;47.60;;;;;;4948906;28;20078;-81
2022/01/18 04:32:42;;;;;;;1.48;0.40;;;19.80;47.60;;;;;;4949440;29;20534;-81
2022/01/18 04:35:08;;;;;;;1.63;0.40;;;19.70;47.60;;;;;;4949545;29;20048;-81
2022/01/18 04:37:33;;;;;;;2.15;0.60;;;19.70;47.50;;;;;;4916874;29;20056;-81
2022/01/18 04:40:01;;;;;;;2.53;0.50;;;19.70;47.50;;;;;;4949401;29;20059;-81
2022/01/18 04:42:57;;;;;;;3.10;0.50;;;19.70;47.60;;;;;;4948481;29;20104;-81
2022/01/18 04:50:50;;;;;;;1.52;0.40;;;19.70;47.50;;;;;;4934765;29;20177;-81
2022/01/18 04:53:16;;;;;;;2.05;0.50;;;19.70;47.60;;;;;;4948862;28;20057;-81
2022/01/18 04:55:42;;;;;;;1.88;0.40;;;19.70;47.50;;;;;;4949151;29;20051;-81
2022/01/18 04:58:07;;;;;;;3.58;0.65;;;19.70;47.60;;;;;;4948289;29;20043;-81
2022/01/18 05:00:33;;;;;;;0.88;0.30;;;19.70;47.60;;;;;;4948710;28;20039;-81
2022/01/18 05:02:58;;;;;;;2.33;0.50;;;19.70;47.60;;;;;;4948912;29;20408;-81
2022/01/18 05:05:26;;;;;;;3.20;0.60;;;19.70;47.60;;;;;;4947598;29;20559;-81
2022/01/18 05:07:53;;;;;;;2.10;0.50;;;19.70;47.60;;;;;;4936875;28;20547;-81
2022/01/18 05:10:20;;;;;;;2.08;0.32;;;19.70;47.50;;;;;;4916764;29;20040;-81
2022/01/18 05:12:49;;;;;;;1.45;0.30;;;19.70;47.60;;;;;;4915927;29;20048;-81
2022/01/18 05:15:56;;;;;;;1.77;0.50;;;19.70;47.60;;;;;;4948615;28;20059;-81
2022/01/18 05:23:16;;;;;;;1.60;0.40;;;19.70;47.60;;;;;;4945126;29;20052;-81
2022/01/18 05:25:44;;;;;;;1.27;0.50;;;19.70;47.60;;;;;;4912866;29;20052;-81
2022/01/18 05:28:10;;;;;;;1.45;0.40;;;19.80;47.70;;;;;;4913560;29;20044;-81
2022/01/18 05:30:35;;;;;;;1.52;0.30;;;19.80;47.80;;;;;;4907220;29;20416;-81
2022/01/18 05:33:01;;;;;;;1.52;0.40;;;19.80;47.70;;;;;;4945779;28;20063;-81
2022/01/18 05:35:26;;;;;;;2.25;0.50;;;19.80;47.70;;;;;;4948556;29;20051;-81
2022/01/18 05:37:52;;;;;;;0.80;0.28;;;19.90;47.70;;;;;;4948378;29;20059;-81
2022/01/18 05:40:18;;;;;;;1.27;0.30;;;19.90;47.70;;;;;;4947749;29;20079;-81
2022/01/18 05:42:44;;;;;;;1.60;0.43;;;19.90;47.70;;;;;;4916546;29;20051;-81
2022/01/18 05:45:10;;;;;;;1.80;0.30;;;19.90;47.70;;;;;;4916236;29;20464;-81
2022/01/18 05:47:36;;;;;;;1.55;0.40;;;20.00;47.70;;;;;;4931514;29;20095;-81
2022/01/18 05:50:03;;;;;;;1.42;0.40;;;20.00;47.70;;;;;;4916408;29;20099;-81
2022/01/18 05:52:28;;;;;;;1.83;0.43;;;21.20;48.40;;;;;;4948330;29;20098;-81
2022/01/18 05:54:54;;;;;;;1.55;0.40;;;20.10;47.80;;;;;;4946307;29;20143;-81
2022/01/18 05:57:20;;;;;;;0.93;0.32;;;20.10;47.80;;;;;;4947974;29;20059;-81
2022/01/18 05:59:47;;;;;;;1.88;0.50;;;20.10;47.80;;;;;;4947501;29;20048;-81
2022/01/18 06:02:31;;;;;;;1.25;0.30;;;20.20;47.80;;;;;;4947941;29;20063;-81
2022/01/18 06:07:41;;;;;;;1.60;0.40;;;20.20;47.80;;;;;;4947399;29;20052;-81
2022/01/18 06:10:07;;;;;;;1.67;0.30;;;20.30;47.80;;;;;;4947617;29;20043;-81
2022/01/18 06:12:33;;;;;;;2.85;0.40;;;20.20;47.70;;;;;;4916205;29;20043;-81
2022/01/18 06:14:58;;;;;;;1.52;0.30;;;20.30;47.70;;;;;;4946906;29;20083;-81
2022/01/18 06:17:24;;;;;;;1.95;0.40;;;20.30;47.60;;;;;;4915663;29;20059;-81
2022/01/18 06:19:50;;;;;;;1.30;0.40;;;20.30;47.60;;;;;;4947526;28;20055;-81
2022/01/18 06:22:15;;;;;;;1.25;0.30;;;20.30;47.60;;;;;;4946680;29;20059;-81
2022/01/18 06:24:41;;;;;;;1.48;0.20;;;20.30;47.60;;;;;;4947513;29;20142;-81
2022/01/18 06:27:07;;;;;;;1.60;0.30;;;20.40;47.60;;;;;;4931688;29;20190;-80
2022/01/18 06:29:33;;;;;;;1.88;0.30;;;20.40;47.60;;;;;;4946592;29;20071;-81
2022/01/18 06:31:58;;;;;;;2.15;0.52;;;20.40;47.60;;;;;;4938872;29;20050;-81
2022/01/18 06:34:24;;;;;;;1.83;0.50;;;20.40;47.60;;;;;;4928946;29;20086;-81
2022/01/18 06:36:50;;;;;;;1.88;0.30;;;20.40;47.60;;;;;;4932651;28;20050;-81
2022/01/18 06:39:18;;;;;;;1.73;0.30;;;20.40;47.60;;;;;;4927769;29;20047;-81
2022/01/18 06:41:46;;;;;;;1.80;0.38;;;20.50;47.60;;;;;;4903692;29;20520;-80
2022/01/18 06:44:13;;;;;;;0.90;0.20;;;20.50;47.60;;;;;;4893827;29;20060;-81
2022/01/18 06:46:38;;;;;;;1.35;0.38;;;20.50;47.50;;;;;;4895724;29;20046;-81
2022/01/18 06:49:04;;;;;;;1.60;0.40;;;20.50;47.50;;;;;;4884495;29;20143;-81
2022/01/18 06:51:31;;;;;;;1.38;0.40;;;20.50;47.50;;;;;;4877799;29;20044;-81
2022/01/18 06:53:56;;;;;;;1.38;0.40;;;20.50;47.50;;;;;;4896274;29;20052;-81
2022/01/18 06:56:22;;;;;;;1.90;0.40;;;20.50;47.50;;;;;;4895655;29;20048;-81
2022/01/18 06:58:48;;;;;;;1.42;0.40;;;20.60;47.50;;;;;;4896139;29;20409;-81
2022/01/18 07:01:13;;;;;;;0.82;0.30;;;21.50;48.10;;;;;;4896016;29;20151;-81
2022/01/18 07:03:39;;;;;;;0.93;0.20;;;20.60;47.50;;;;;;4883812;29;20136;-81
2022/01/18 07:06:05;;;;;;;0.85;0.17;;;20.60;48.20;;;;;;4876127;29;20386;-82
2022/01/18 07:08:31;;;;;;;1.20;0.20;;;20.60;47.40;;;;;;4877234;29;20147;-82
2022/01/18 07:10:57;;;;;;;1.50;0.38;;;20.60;47.40;;;;;;4876731;29;20048;-81
2022/01/18 07:13:23;;;;;;;0.82;0.30;;;20.70;48.10;;;;;;4892761;29;20045;-81
2022/01/18 07:15:48;;;;;;;1.42;0.40;;;20.70;47.40;;;;;;4877745;29;20112;-81
2022/01/18 07:18:14;;;;;;;1.00;0.30;;;20.70;47.40;;;;;;4892550;29;20057;-81
2022/01/18 07:20:40;;;;;;;1.17;0.35;;;20.70;47.40;;;;;;4893052;29;20511;-81
2022/01/18 07:23:08;;;;;;;1.30;0.50;;;20.70;47.30;;;;;;4879958;29;20065;-81
2022/01/18 07:25:33;;;;;;;1.33;0.30;;;20.70;47.30;;;;;;4897886;29;20192;-81
2022/01/18 07:27:59;;;;;;;1.13;0.20;;;20.70;47.30;;;;;;4922120;29;20570;-81
2022/01/18 07:30:25;;;;;;;2.95;0.30;;;20.70;47.30;;;;;;4897110;29;20044;-81
2022/01/18 07:32:50;;;;;;;2.75;0.30;;;20.70;47.30;;;;;;4899493;29;20664;-81
2022/01/18 07:35:16;;;;;;;0.65;0.28;;;20.80;47.30;;;;;;4900443;29;20377;-81
2022/01/18 07:37:41;;;;;;;1.45;0.50;;;20.80;47.30;;;;;;4888250;29;20095;-81
2022/01/18 07:40:07;;;;;;;1.48;0.30;;;20.70;47.20;;;;;;4896309;29;20063;-81
2022/01/18 07:42:33;;;;;;;1.42;0.40;;;20.70;47.20;;;;;;4896573;29;20055;-82
2022/01/18 07:44:58;;;;;;;1.60;0.25;;;20.80;47.20;;;;;;4899667;29;20131;-81
2022/01/18 07:47:24;;;;;;;0.90;0.20;;;20.70;47.20;;;;;;4909056;29;20080;-81
2022/01/18 07:49:49;;;;;;;1.35;0.40;;;20.70;47.10;;;;;;4899451;29;20052;-81
2022/01/18 07:52:18;;;;;;;1.10;0.30;;;20.80;47.20;;;;;;4899139;29;20539;-81
2022/01/18 07:54:44;;;;;;;2.63;0.43;;;20.80;47.20;;;;;;4899595;29;20877;-81
2022/01/18 07:57:11;;;;;;;1.88;0.43;;;20.70;47.10;;;;;;4899414;29;20051;-78
2022/01/18 07:59:37;;;;;;;1.50;0.40;;;20.70;47.20;;;;;;4898877;29;20098;-82
2022/01/18 08:02:05;;;;;;;1.85;0.30;;;20.70;47.10;;;;;;4898157;29;20425;-81
2022/01/18 08:04:31;;;;;;;1.45;0.32;;;20.70;47.10;;;;;;4894175;29;20059;-87
2022/01/18 08:06:56;;;;;;;7.20;1.80;;;20.70;47.10;;;;;;4882584;29;20049;-82
2022/01/18 08:09:22;;;;;;;8.25;1.63;;;21.00;47.30;;;;;;4891068;29;20044;-82
2022/01/18 08:11:48;;;;;;;6.60;1.60;;;20.70;47.20;;;;;;4880195;29;20850;-83
2022/01/18 08:14:14;;;;;;;6.30;1.10;;;20.60;47.30;;;;;;4895859;29;20120;-83
2022/01/18 08:16:48;;;;;;;8.07;1.25;;;20.60;47.30;;;;;;4880891;29;20424;-82
2022/01/18 08:19:14;;;;;;;7.65;1.73;;;21.70;48.00;;;;;;4886575;29;20112;-83
2022/01/18 08:21:40;;;;;;;7.75;1.42;;;20.60;47.50;;;;;;4886763;29;20032;-83
2022/01/18 08:24:05;;;;;;;5.13;1.10;;;20.50;47.50;;;;;;4898009;29;20394;-82
2022/01/18 08:26:31;;;;;;;6.28;1.25;;;20.50;47.60;;;;;;4912088;29;20055;-82
2022/01/18 08:28:56;;;;;;;6.97;1.25;;;20.50;47.60;;;;;;4906140;29;20063;-82
2022/01/18 08:31:22;;;;;;;9.07;1.00;;;20.40;47.40;;;;;;4914338;29;20055;-82
2022/01/18 08:33:47;;;;;;;4.45;0.95;;;20.40;47.40;;;;;;4899080;29;20567;-81
2022/01/18 08:36:13;;;;;;;8.63;1.40;;;20.40;47.40;;;;;;4913676;29;20059;-81
2022/01/18 08:38:40;;;;;;;5.20;1.00;;;20.40;47.50;;;;;;4902085;29;20048;-81
2022/01/18 08:41:05;;;;;;;7.85;0.90;;;20.30;47.60;;;;;;4914180;29;20056;-81
2022/01/18 08:43:31;;;;;;;5.90;0.85;;;20.30;47.60;;;;;;4903101;29;20103;-81
2022/01/18 08:45:58;;;;;;;5.95;1.10;;;20.30;47.70;;;;;;4917767;29;20043;-81
2022/01/18 08:48:23;;;;;;;5.05;1.15;;;20.20;47.70;;;;;;4916662;29;20055;-82
2022/01/18 08:50:49;;;;;;;5.60;1.15;;;20.20;47.80;;;;;;4900114;29;20066;-80
2022/01/18 08:53:14;;;;;;;5.70;1.10;;;20.20;47.80;;;;;;4898434;29;20594;-82
2022/01/18 08:55:40;;;;;;;4.85;0.82;;;20.20;47.80;;;;;;4897629;29;20052;-82
2022/01/18 08:58:06;;;;;;;5.28;1.00;;;20.20;47.80;;;;;;4898414;29;20056;-82
2022/01/18 09:00:31;;;;;;;5.20;1.33;;;20.20;47.80;;;;;;4898566;29;20508;-82
2022/01/18 09:02:57;;;;;;;3.33;0.80;;;20.10;48.50;;;;;;4913570;29;20044;-81
2022/01/18 09:05:24;;;;;;;4.93;1.13;;;20.10;47.80;;;;;;4914219;29;20055;-82
2022/01/18 09:07:50;;;;;;;4.05;0.73;;;20.10;47.80;;;;;;4916469;29;20052;-82
2022/01/18 09:10:16;;;;;;;5.25;0.90;;;20.40;48.00;;;;;;4916211;29;20540;-82
2022/01/18 09:12:41;;;;;;;5.38;1.05;;;20.10;47.80;;;;;;4917169;29;20047;-82
2022/01/18 09:15:08;;;;;;;5.65;1.00;;;20.10;47.80;;;;;;4917165;29;20588;-82
2022/01/18 09:17:35;;;;;;;6.15;1.17;;;20.10;47.80;;;;;;4916666;29;20051;-82
2022/01/18 09:20:05;;;;;;;5.82;0.98;;;20.10;47.90;;;;;;4917242;29;20044;-82
2022/01/18 09:22:33;;;;;;;4.65;0.80;;;20.10;47.90;;;;;;4916370;29;20052;-80
2022/01/18 09:24:58;;;;;;;3.03;0.70;;;20.00;47.90;;;;;;4911750;29;20385;-81
2022/01/18 09:27:24;;;;;;;6.03;0.90;;;20.00;48.00;;;;;;4897440;29;20104;-80
2022/01/18 09:29:49;;;;;;;3.53;0.98;;;20.00;48.00;;;;;;4897878;29;20523;-80
2022/01/18 09:32:16;;;;;;;5.25;0.88;;;20.00;48.00;;;;;;4865942;29;20065;-80
2022/01/18 09:34:42;;;;;;;3.22;0.50;;;20.00;48.10;;;;;;4908338;29;20445;-80
2022/01/18 09:37:07;;;;;;;4.95;0.93;;;20.00;48.10;;;;;;4922962;29;20048;-80
2022/01/18 09:39:33;;;;;;;2.55;0.65;;;20.00;48.10;;;;;;4913014;29;20461;-80
2022/01/18 09:42:02;;;;;;;3.50;0.60;;;20.00;48.10;;;;;;4907164;29;20404;-80
2022/01/18 09:44:29;;;;;;;4.60;0.77;;;20.00;48.10;;;;;;4892698;29;20048;-80
2022/01/18 09:46:54;;;;;;;2.95;0.52;;;19.90;48.00;;;;;;4896876;29;20063;-80
2022/01/18 09:49:20;;;;;;;3.35;0.65;;;21.30;48.70;;;;;;4897482;29;20040;-80
2022/01/18 09:51:45;;;;;;;2.00;0.60;;;20.00;48.00;;;;;;4897315;29;20054;-82
2022/01/18 09:54:11;;;;;;;3.80;0.80;;;19.90;47.90;;;;;;4896177;29;20060;-82
2022/01/18 09:56:36;;;;;;;3.50;0.57;;;19.90;47.90;;;;;;4897839;29;20167;-82
2022/01/18 09:59:03;;;;;;;2.90;0.80;;;19.90;47.90;;;;;;4911990;29;20036;-82
2022/01/18 10:01:29;;;;;;;4.10;0.60;;;19.90;47.90;;;;;;4907692;29;20067;-81
2022/01/18 10:04:16;;;;;;;3.08;0.82;;;19.80;47.90;;;;;;4854297;29;20147;-81
2022/01/18 10:06:43;;;;;;;4.07;0.85;;;19.90;47.90;;;;;;4901883;29;20098;-82
2022/01/18 10:09:13;;;;;;;2.88;0.80;;;19.90;47.90;;;;;;4912737;29;20603;-82
2022/01/18 10:12:14;;;;;;;3.25;0.82;;;19.90;48.00;;;;;;4897149;29;20066;-82
2022/01/18 10:14:57;;;;;;;2.92;0.65;;;19.90;48.10;;;;;;4896698;29;20048;-81
2022/01/18 10:17:36;;;;;;;4.00;0.77;;;19.90;48.10;;;;;;4884208;29;20083;-82
2022/01/18 10:20:05;;;;;;;3.22;0.73;;;19.80;48.00;;;;;;4896064;29;20527;-81
2022/01/18 10:22:40;;;;;;;4.82;0.98;;;19.80;48.10;;;;;;4869331;29;20061;-82
2022/01/18 10:25:16;;;;;;;2.95;0.60;;;19.80;48.10;;;;;;4877733;29;20040;-82
2022/01/18 10:27:42;;;;;;;3.70;0.77;;;19.80;48.10;;;;;;4874456;29;20553;-82
2022/01/18 10:30:10;;;;;;;1.80;0.60;;;19.80;48.10;;;;;;4868392;29;20051;-81
2022/01/18 10:32:40;;;;;;;2.95;0.70;;;19.80;48.10;;;;;;4909242;29;20405;-82
2022/01/18 10:35:08;;;;;;;3.05;0.73;;;19.80;48.10;;;;;;4890681;29;20062;-81
2022/01/18 10:37:35;;;;;;;3.08;0.60;;;19.80;48.20;;;;;;4898928;29;20102;-82
2022/01/18 10:40:06;;;;;;;4.85;0.95;;;19.80;48.20;;;;;;4934192;29;20047;-81
2022/01/18 10:42:41;;;;;;;3.33;0.77;;;19.80;48.20;;;;;;4924598;29;20055;-81
2022/01/18 10:45:13;;;;;;;2.30;0.73;;;19.80;48.20;;;;;;4927260;29;20048;-81
2022/01/18 10:47:47;;;;;;;2.38;0.65;;;19.80;48.20;;;;;;4923449;29;20051;-81
2022/01/18 10:50:15;;;;;;;3.38;0.65;;;19.80;48.20;;;;;;4902176;29;20062;-82
2022/01/18 10:52:40;;;;;;;2.58;0.65;;;19.80;48.20;;;;;;4905203;29;20130;-82
2022/01/18 10:55:07;;;;;;;3.50;1.13;;;19.70;48.20;;;;;;4915104;29;20138;-81
2022/01/18 10:57:36;;;;;;;2.67;0.85;;;19.80;48.30;;;;;;4915168;29;20052;-81
2022/01/18 11:00:08;;;;;;;3.67;0.80;;;19.70;48.30;;;;;;4926897;29;20078;-81
2022/01/18 11:02:34;;;;;;;;;;;19.80;48.30;;;;;;4930298;29;20043;-82
2022/01/18 11:05:00;;;;;;;3.25;1.00;;;19.80;48.30;;;;;;4927744;29;19933;-82
2022/01/18 11:07:28;;;;;;;3.50;0.65;;;19.80;48.30;;;;;;4940192;28;20138;-80
2022/01/18 11:09:54;;;;;;;2.88;0.70;;;19.70;48.20;;;;;;4938065;29;20091;-83
2022/01/18 11:12:22;;;;;;;2.17;0.60;;;19.80;48.40;;;;;;4925364;29;20090;-81
2022/01/18 11:14:59;;;;;;;1.23;0.45;;;19.80;48.30;;;;;;4928577;29;20483;-81
2022/01/18 11:17:26;;;;;;;4.20;0.70;;;19.90;48.30;;;;;;4932857;29;20051;-81
2022/01/18 11:19:54;;;;;;;2.55;0.70;;;19.80;48.30;;;;;;4917735;29;20044;-81
2022/01/18 11:22:23;;;;;;;1.10;0.40;;;19.90;48.30;;;;;;4929773;29;20582;-81
2022/01/18 11:24:48;;;;;;;2.05;0.52;;;19.90;48.20;;;;;;4902977;29;20047;-81
2022/01/18 11:27:14;;;;;;;0.88;0.30;;;19.90;48.20;;;;;;4914741;29;20393;-81
2022/01/18 11:29:41;;;;;;;1.65;0.47;;;19.90;48.20;;;;;;4881077;29;20109;-81
2022/01/18 11:32:07;;;;;;;2.78;0.60;;;20.40;48.40;;;;;;4873615;29;20055;-81
2022/01/18 11:34:55;;;;;;;1.58;0.40;;;19.90;48.10;;;;;;4843495;29;20381;-81
2022/01/18 11:37:58;;;;;;;2.63;0.45;;;19.90;48.10;;;;;;4858542;29;20405;-81
2022/01/18 11:40:23;;;;;;;1.55;0.30;;;19.90;48.00;;;;;;4874007;29;20080;-81
2022/01/18 11:42:52;;;;;;;1.88;0.43;;;20.00;48.10;;;;;;4873852;29;20081;-81
2022/01/18 11:45:24;;;;;;;1.77;0.47;;;20.00;48.00;;;;;;4902232;29;20054;-81
2022/01/18 11:48:06;;;;;;;1.67;0.40;;;20.00;47.90;;;;;;4930891;29;20103;-81
2022/01/18 11:50:33;;;;;;;;;;;20.00;47.90;;;;;;4943347;29;20063;-80
2022/01/18 11:53:46;;;;;;;1.77;0.32;;;20.00;47.90;;;;;;4928531;29;19927;-81
2022/01/18 11:56:31;;;;;;;0.88;0.30;;;20.00;47.70;;;;;;4932676;29;20043;-81
2022/01/18 11:59:21;;;;;;;1.08;0.40;;;21.00;48.30;;;;;;4926082;29;20483;-81
2022/01/18 12:01:51;;;;;;;1.08;0.40;;;20.00;47.70;;;;;;4929374;29;20138;-81
2022/01/18 12:05:00;;;;;;;1.88;0.38;;;20.00;47.70;;;;;;4945541;28;20048;-81
2022/01/18 12:07:57;;;;;;;1.02;0.32;;;20.00;47.70;;;;;;4913670;29;20055;-81
2022/01/18 12:10:37;;;;;;;3.15;0.57;;;20.00;47.70;;;;;;4913546;29;20055;-81
2022/01/18 12:13:05;;;;;;;1.58;0.47;;;20.10;47.80;;;;;;4944746;29;20137;-81
2022/01/18 12:15:33;;;;;;;0.65;0.20;;;20.10;47.80;;;;;;4949048;28;20055;-81
2022/01/18 12:18:02;;;;;;;1.38;0.40;;;20.30;47.90;;;;;;4938156;29;20554;-81
2022/01/18 12:20:38;;;;;;;1.50;0.50;;;20.10;47.80;;;;;;4952183;29;20142;-81
2022/01/18 12:23:09;;;;;;;1.35;0.35;;;20.10;47.80;;;;;;4937025;29;20130;-81
2022/01/18 12:25:37;;;;;;;1.70;0.50;;;20.10;47.80;;;;;;4929076;29;20046;-81
2022/01/18 12:34:31;;;;;;;1.85;0.30;;;20.10;47.80;;;;;;4909865;29;20110;-83
2022/01/18 12:37:11;;;;;;;1.00;0.40;;;20.10;47.80;;;;;;4913337;29;20048;-81
2022/01/18 12:39:53;;;;;;;1.73;0.45;;;20.10;47.80;;;;;;4901718;29;20052;-82
2022/01/18 12:45:08;;;;;;;1.50;0.40;;;20.20;47.80;;;;;;4917422;29;20052;-83
2022/01/18 12:47:40;;;;;;;1.75;0.30;;;20.20;47.90;;;;;;4915460;29;20163;-83
2022/01/18 12:50:07;;;;;;;1.17;0.30;;;20.20;47.80;;;;;;4916819;29;20055;-82
2022/01/18 12:52:55;;;;;;;1.17;0.30;;;20.20;47.80;;;;;;4917215;29;20265;-81
2022/01/18 12:55:23;;;;;;;1.52;0.25;;;20.20;47.80;;;;;;4915160;29;20047;-82
2022/01/18 12:58:08;;;;;;;1.75;0.43;;;20.30;47.90;;;;;;4916303;29;20051;-82
2022/01/18 13:00:41;;;;;;;1.48;0.30;;;20.30;47.90;;;;;;4916629;29;20099;-82
2022/01/18 13:03:07;;;;;;;1.98;0.30;;;20.30;47.90;;;;;;4900355;29;20052;-82
2022/01/18 13:05:40;;;;;;;1.13;0.40;;;20.40;47.80;;;;;;4916263;29;20059;-82
2022/01/18 13:08:07;;;;;;;1.30;0.30;;;20.40;47.80;;;;;;4912768;29;20047;-81
2022/01/18 13:10:33;;;;;;;0.73;0.22;;;21.10;48.20;;;;;;4896796;29;20094;-81
2022/01/18 13:13:00;;;;;;;1.55;0.30;;;21.20;48.20;;;;;;4911117;29;20058;-81
2022/01/18 13:25:04;;;;;;;1.90;0.47;;;20.50;47.60;;;;;;4915347;29;20043;-81
2022/01/18 13:26:58;;;;;;;2.85;0.75;;;20.50;47.50;;;;;;4912343;29;20056;-81
2022/01/18 13:29:26;;;;;;;1.13;0.32;;;20.50;47.40;;;;;;4915010;29;20047;-81
2022/01/18 13:32:15;;;;;;;1.95;0.40;;;20.90;47.60;;;;;;4915763;29;20048;-81
2022/01/18 13:34:43;;;;;;;3.38;0.30;;;20.60;47.50;;;;;;4916492;29;20071;-82
2022/01/18 13:37:11;;;;;;;0.57;0.20;;;20.50;47.40;;;;;;4915464;29;20115;-81
2022/01/18 13:39:44;;;;;;;1.50;0.40;;;20.60;47.40;;;;;;4914363;29;20573;-81
2022/01/18 13:42:14;;;;;;;2.55;0.20;;;20.60;47.40;;;;;;4914709;29;20054;-81
2022/01/18 13:45:00;;;;;;;1.00;0.30;;;20.60;47.40;;;;;;4915422;29;20078;-83
2022/01/18 13:47:26;;;;;;;1.65;0.30;;;20.60;47.50;;;;;;4914670;29;20062;-83
2022/01/18 13:49:51;;;;;;;2.72;0.30;;;20.60;47.40;;;;;;4911613;29;20048;-82
2022/01/18 13:52:17;;;;;;;1.63;0.32;;;20.60;47.50;;;;;;4914146;29;20048;-82
2022/01/18 13:54:42;;;;;;;1.63;0.40;;;20.70;47.60;;;;;;4914528;29;20047;-82
2022/01/18 13:57:08;;;;;;;0.73;0.17;;;20.70;47.20;;;;;;4909533;29;20084;-83
2022/01/18 13:59:33;;;;;;;4.20;0.43;;;20.70;47.10;;;;;;4905320;29;20780;-84
2022/01/18 14:02:11;;;;;;;2.40;0.40;;;20.70;47.10;;;;;;4902400;29;20052;-85
2022/01/18 14:04:37;;;;;;;4.35;0.30;;;20.70;47.10;;;;;;4899813;29;20488;-85
2022/01/18 14:07:03;;;;;;;6.15;0.55;;;20.90;47.10;;;;;;4914756;29;20050;-83
2022/01/18 14:09:28;;;;;;;3.10;0.40;;;20.70;47.00;;;;;;4915129;29;20048;-84
2022/01/18 14:11:55;;;;;;;4.28;0.30;;;20.70;47.00;;;;;;4914369;29;20051;-84
2022/01/18 14:14:22;;;;;;;2.67;0.30;;;21.10;47.20;;;;;;4916451;29;20130;-84
2022/01/18 14:17:08;;;;;;;3.88;0.20;;;20.70;46.90;;;;;;4915641;29;20052;-83
2022/01/18 14:19:40;;;;;;;2.65;0.70;;;20.70;47.00;;;;;;4914145;29;20055;-84
2022/01/18 14:22:23;;;;;;;2.15;0.40;;;20.70;46.90;;;;;;4912886;29;20071;-84